sensor_id;sensor_type;location;lat;lon;timestamp;temperature;humidity
20081;DHT22;10200;49.232;9.222;2023-02-10T00:01:15;-1.80;99.90
20081;DHT22;10200;49.232;9.222;2023-02-10T00:03:41;-1.90;99.90
20081;DHT22;10200;49.232;9.222;2023-02-10T00:06:08;-1.90;99.90
20081;DHT22;10200;49.232;9.222;2023-02-10T00:08:34;-1.90;99.90
20081;DHT22;10200;49.232;9.222;2023-02-10T00:11:03;-1.90;99.90
20081;DHT22;10200;49.232;9.222;2023-02-10T00:13:29;-1.90;99.90
20081;DHT22;10200;49.232;9.222;2023-02-10T00:15:58;-1.80;99.90
20081;DHT22;10200;49.232;9.222;2023-02-10T00:18:23;-1.90;99.90
20081;DHT22;10200;49.232;9.222;2023-02-10T00:20:49;-1.90;99.90
20081;DHT22;10200;49.232;9.222;2023-02-10T00:23:15;-1.90;99.90
20081;DHT22;10200;49.232;9.222;2023-02-10T00:25:40;-1.90;99.90
20081;DHT22;10200;49.232;9.222;2023-02-10T00:28:06;-1.90;99.90
20081;DHT22;10200;49.232;9.222;2023-02-10T00:30:33;-1.90;99.90
20081;DHT22;10200;49.232;9.222;2023-02-10T00:32:59;-1.90;99.90
20081;DHT22;10200;49.232;9.222;2023-02-10T00:35:24;-1.90;99.90
20081;DHT22;10200;49.232;9.222;2023-02-10T00:37:50;-1.90;99.90
20081;DHT22;10200;49.232;9.222;2023-02-10T00:40:16;-1.90;99.90
20081;DHT22;10200;49.232;9.222;2023-02-10T00:42:42;-1.90;99.90
20081;DHT22;10200;49.232;9.222;2023-02-10T00:45:08;-2.00;99.90
20081;DHT22;10200;49.232;9.222;2023-02-10T00:47:34;-2.00;99.90
20081;DHT22;10200;49.232;9.222;2023-02-10T00:50:00;-2.00;99.90
20081;DHT22;10200;49.232;9.222;2023-02-10T00:52:25;-2.00;99.90
20081;DHT22;10200;49.232;9.222;2023-02-10T00:54:51;-2.00;99.90
20081;DHT22;10200;49.232;9.222;2023-02-10T00:57:17;-2.00;99.90
20081;DHT22;10200;49.232;9.222;2023-02-10T00:59:42;-2.00;99.90
20081;DHT22;10200;49.232;9.222;2023-02-10T01:02:08;-2.00;99.90
20081;DHT22;10200;49.232;9.222;2023-02-10T01:04:34;-2.10;99.90
20081;DHT22;10200;49.232;9.222;2023-02-10T01:07:00;-2.10;99.90
20081;DHT22;10200;49.232;9.222;2023-02-10T01:09:25;-2.10;99.90
20081;DHT22;10200;49.232;9.222;2023-02-10T01:11:51;-2.20;99.90
20081;DHT22;10200;49.232;9.222;2023-02-10T01:14:16;-2.20;99.90
20081;DHT22;10200;49.232;9.222;2023-02-10T01:16:42;-2.30;99.90
20081;DHT22;10200;49.232;9.222;2023-02-10T01:19:08;-2.30;99.90
20081;DHT22;10200;49.232;9.222;2023-02-10T01:21:33;-2.30;99.90
20081;DHT22;10200;49.232;9.222;2023-02-10T01:24:02;-2.30;99.90
20081;DHT22;10200;49.232;9.222;2023-02-10T01:26:28;-2.30;99.90
20081;DHT22;10200;49.232;9.222;2023-02-10T01:28:53;-2.30;99.90
20081;DHT22;10200;49.232;9.222;2023-02-10T01:31:20;-2.30;99.90
20081;DHT22;10200;49.232;9.222;2023-02-10T01:33:46;-2.30;99.90
20081;DHT22;10200;49.232;9.222;2023-02-10T01:36:16;-2.30;99.90
20081;DHT22;10200;49.232;9.222;2023-02-10T01:38:42;-2.30;99.90
20081;DHT22;10200;49.232;9.222;2023-02-10T01:41:09;-2.30;99.90
20081;DHT22;10200;49.232;9.222;2023-02-10T01:46:39;-2.30;99.90
20081;DHT22;10200;49.232;9.222;2023-02-10T01:49:08;-2.30;99.90
20081;DHT22;10200;49.232;9.222;2023-02-10T01:51:41;-2.30;99.90
20081;DHT22;10200;49.232;9.222;2023-02-10T01:54:12;-2.40;99.90
20081;DHT22;10200;49.232;9.222;2023-02-10T01:56:39;-2.40;99.90
20081;DHT22;10200;49.232;9.222;2023-02-10T01:59:06;-2.40;99.90
20081;DHT22;10200;49.232;9.222;2023-02-10T02:01:31;-2.40;99.90
20081;DHT22;10200;49.232;9.222;2023-02-10T02:03:58;-2.40;99.90
20081;DHT22;10200;49.232;9.222;2023-02-10T02:06:23;-2.40;99.90
20081;DHT22;10200;49.232;9.222;2023-02-10T02:08:49;-2.40;99.90
20081;DHT22;10200;49.232;9.222;2023-02-10T02:22:09;-2.60;99.90
20081;DHT22;10200;49.232;9.222;2023-02-10T02:30:02;-2.60;99.90
20081;DHT22;10200;49.232;9.222;2023-02-10T02:32:49;-2.70;99.90
20081;DHT22;10200;49.232;9.222;2023-02-10T02:35:23;-2.70;99.90
20081;DHT22;10200;49.232;9.222;2023-02-10T02:37:51;-2.70;99.90
20081;DHT22;10200;49.232;9.222;2023-02-10T02:40:19;-2.70;99.90
20081;DHT22;10200;49.232;9.222;2023-02-10T02:42:45;-2.70;99.90
20081;DHT22;10200;49.232;9.222;2023-02-10T02:50:49;-2.80;99.90
20081;DHT22;10200;49.232;9.222;2023-02-10T02:53:40;-2.80;99.90
20081;DHT22;10200;49.232;9.222;2023-02-10T02:59:11;-2.80;99.90
20081;DHT22;10200;49.232;9.222;2023-02-10T03:01:49;-2.80;99.90
20081;DHT22;10200;49.232;9.222;2023-02-10T03:04:17;-2.80;99.90
20081;DHT22;10200;49.232;9.222;2023-02-10T03:06:43;-2.80;99.90
20081;DHT22;10200;49.232;9.222;2023-02-10T03:09:09;-2.80;99.90
20081;DHT22;10200;49.232;9.222;2023-02-10T03:11:35;-2.70;99.90
20081;DHT22;10200;49.232;9.222;2023-02-10T03:14:00;-2.80;99.90
20081;DHT22;10200;49.232;9.222;2023-02-10T03:16:26;-2.80;99.90
20081;DHT22;10200;49.232;9.222;2023-02-10T03:18:52;-2.70;99.90
20081;DHT22;10200;49.232;9.222;2023-02-10T03:21:17;-2.70;99.90
20081;DHT22;10200;49.232;9.222;2023-02-10T03:23:43;-2.70;99.90
20081;DHT22;10200;49.232;9.222;2023-02-10T03:26:08;-2.70;99.90
20081;DHT22;10200;49.232;9.222;2023-02-10T03:28:34;-2.70;99.90
20081;DHT22;10200;49.232;9.222;2023-02-10T03:31:04;-2.70;99.90
20081;DHT22;10200;49.232;9.222;2023-02-10T03:33:30;-2.70;99.90
20081;DHT22;10200;49.232;9.222;2023-02-10T03:35:56;-2.70;99.90
20081;DHT22;10200;49.232;9.222;2023-02-10T03:38:23;-2.70;99.90
20081;DHT22;10200;49.232;9.222;2023-02-10T03:40:49;-2.70;99.90
20081;DHT22;10200;49.232;9.222;2023-02-10T03:43:16;-2.70;99.90
20081;DHT22;10200;49.232;9.222;2023-02-10T03:45:41;-2.80;99.90
20081;DHT22;10200;49.232;9.222;2023-02-10T03:48:07;-2.80;99.90
20081;DHT22;10200;49.232;9.222;2023-02-10T03:50:33;-2.80;99.90
20081;DHT22;10200;49.232;9.222;2023-02-10T03:52:58;-2.80;99.90
20081;DHT22;10200;49.232;9.222;2023-02-10T03:55:24;-2.80;99.90
20081;DHT22;10200;49.232;9.222;2023-02-10T03:57:50;-2.90;99.90
20081;DHT22;10200;49.232;9.222;2023-02-10T04:00:15;-2.90;99.90
20081;DHT22;10200;49.232;9.222;2023-02-10T04:02:41;-2.90;99.90
20081;DHT22;10200;49.232;9.222;2023-02-10T04:05:07;-2.90;99.90
20081;DHT22;10200;49.232;9.222;2023-02-10T04:07:32;-2.90;99.90
20081;DHT22;10200;49.232;9.222;2023-02-10T04:09:58;-2.80;99.90
20081;DHT22;10200;49.232;9.222;2023-02-10T04:12:23;-2.90;99.90
20081;DHT22;10200;49.232;9.222;2023-02-10T04:14:49;-2.80;99.90
20081;DHT22;10200;49.232;9.222;2023-02-10T04:17:15;-2.80;99.90
20081;DHT22;10200;49.232;9.222;2023-02-10T04:19:41;-2.90;99.90
20081;DHT22;10200;49.232;9.222;2023-02-10T04:22:07;-2.90;99.90
20081;DHT22;10200;49.232;9.222;2023-02-10T04:24:32;-2.90;99.90
20081;DHT22;10200;49.232;9.222;2023-02-10T04:26:58;-2.90;99.90
20081;DHT22;10200;49.232;9.222;2023-02-10T04:29:23;-2.90;99.90
20081;DHT22;10200;49.232;9.222;2023-02-10T04:31:49;-3.00;99.90
20081;DHT22;10200;49.232;9.222;2023-02-10T04:34:14;-3.00;99.90
20081;DHT22;10200;49.232;9.222;2023-02-10T04:36:40;-3.00;99.90
20081;DHT22;10200;49.232;9.222;2023-02-10T04:39:06;-3.00;99.90
20081;DHT22;10200;49.232;9.222;2023-02-10T04:41:32;-3.10;99.90
20081;DHT22;10200;49.232;9.222;2023-02-10T04:43:57;-3.10;99.90
20081;DHT22;10200;49.232;9.222;2023-02-10T04:46:23;-3.10;99.90
20081;DHT22;10200;49.232;9.222;2023-02-10T04:48:48;-3.10;99.90
20081;DHT22;10200;49.232;9.222;2023-02-10T04:51:14;-3.10;99.90
20081;DHT22;10200;49.232;9.222;2023-02-10T04:53:40;-3.20;99.90
20081;DHT22;10200;49.232;9.222;2023-02-10T04:56:07;-3.20;99.90
20081;DHT22;10200;49.232;9.222;2023-02-10T04:58:33;-3.20;99.90
20081;DHT22;10200;49.232;9.222;2023-02-10T05:00:58;-3.30;99.90
20081;DHT22;10200;49.232;9.222;2023-02-10T05:03:24;-3.30;99.90
20081;DHT22;10200;49.232;9.222;2023-02-10T05:05:50;-3.30;99.90
20081;DHT22;10200;49.232;9.222;2023-02-10T05:08:20;-3.30;99.90
20081;DHT22;10200;49.232;9.222;2023-02-10T05:10:48;-3.30;99.90
20081;DHT22;10200;49.232;9.222;2023-02-10T05:13:14;-3.30;99.90
20081;DHT22;10200;49.232;9.222;2023-02-10T05:15:40;-3.30;99.90
20081;DHT22;10200;49.232;9.222;2023-02-10T05:18:05;-3.20;99.90
20081;DHT22;10200;49.232;9.222;2023-02-10T05:20:31;-3.20;99.90
20081;DHT22;10200;49.232;9.222;2023-02-10T05:22:57;-3.20;99.90
20081;DHT22;10200;49.232;9.222;2023-02-10T05:25:22;-3.20;99.90
20081;DHT22;10200;49.232;9.222;2023-02-10T05:27:48;-3.20;99.90
20081;DHT22;10200;49.232;9.222;2023-02-10T05:30:14;-3.20;99.90
20081;DHT22;10200;49.232;9.222;2023-02-10T05:32:40;-3.20;99.90
20081;DHT22;10200;49.232;9.222;2023-02-10T05:35:06;-3.20;99.90
20081;DHT22;10200;49.232;9.222;2023-02-10T05:37:32;-3.20;99.90
20081;DHT22;10200;49.232;9.222;2023-02-10T05:39:57;-3.30;99.90
20081;DHT22;10200;49.232;9.222;2023-02-10T05:42:23;-3.30;99.90
20081;DHT22;10200;49.232;9.222;2023-02-10T05:44:48;-3.30;99.90
20081;DHT22;10200;49.232;9.222;2023-02-10T05:47:14;-3.20;99.90
20081;DHT22;10200;49.232;9.222;2023-02-10T05:49:39;-3.20;99.90
20081;DHT22;10200;49.232;9.222;2023-02-10T05:52:05;-3.20;99.90
20081;DHT22;10200;49.232;9.222;2023-02-10T05:54:31;-3.20;99.90
20081;DHT22;10200;49.232;9.222;2023-02-10T05:56:56;-3.20;99.90
20081;DHT22;10200;49.232;9.222;2023-02-10T05:59:22;-3.30;99.90
20081;DHT22;10200;49.232;9.222;2023-02-10T06:01:47;-3.30;99.90
20081;DHT22;10200;49.232;9.222;2023-02-10T06:04:13;-3.30;99.90
20081;DHT22;10200;49.232;9.222;2023-02-10T06:06:39;-3.30;99.90
20081;DHT22;10200;49.232;9.222;2023-02-10T06:09:05;-3.40;99.90
20081;DHT22;10200;49.232;9.222;2023-02-10T06:11:31;-3.40;99.90
20081;DHT22;10200;49.232;9.222;2023-02-10T06:13:57;-3.40;99.90
20081;DHT22;10200;49.232;9.222;2023-02-10T06:16:23;-3.50;99.90
20081;DHT22;10200;49.232;9.222;2023-02-10T06:18:48;-3.50;99.90
20081;DHT22;10200;49.232;9.222;2023-02-10T06:21:17;-3.50;99.90
20081;DHT22;10200;49.232;9.222;2023-02-10T06:23:43;-3.50;99.90
20081;DHT22;10200;49.232;9.222;2023-02-10T06:26:08;-3.40;99.90
20081;DHT22;10200;49.232;9.222;2023-02-10T06:28:34;-3.40;99.90
20081;DHT22;10200;49.232;9.222;2023-02-10T06:31:00;-3.40;99.90
20081;DHT22;10200;49.232;9.222;2023-02-10T06:33:25;-3.40;99.90
20081;DHT22;10200;49.232;9.222;2023-02-10T06:35:51;-3.40;99.90
20081;DHT22;10200;49.232;9.222;2023-02-10T06:38:17;-3.50;99.90
20081;DHT22;10200;49.232;9.222;2023-02-10T06:40:42;-3.50;99.90
20081;DHT22;10200;49.232;9.222;2023-02-10T06:43:08;-3.40;99.90
20081;DHT22;10200;49.232;9.222;2023-02-10T06:45:34;-3.40;99.90
20081;DHT22;10200;49.232;9.222;2023-02-10T06:48:01;-3.40;99.90
20081;DHT22;10200;49.232;9.222;2023-02-10T06:50:27;-3.40;99.90
20081;DHT22;10200;49.232;9.222;2023-02-10T06:52:52;-3.30;99.90
20081;DHT22;10200;49.232;9.222;2023-02-10T06:55:18;-3.30;99.90
20081;DHT22;10200;49.232;9.222;2023-02-10T06:57:44;-3.20;99.90
20081;DHT22;10200;49.232;9.222;2023-02-10T07:00:12;-3.20;99.90
20081;DHT22;10200;49.232;9.222;2023-02-10T07:02:38;-3.20;99.90
20081;DHT22;10200;49.232;9.222;2023-02-10T07:05:05;-3.20;99.90
20081;DHT22;10200;49.232;9.222;2023-02-10T07:07:36;-3.20;99.90
20081;DHT22;10200;49.232;9.222;2023-02-10T07:10:03;-3.10;99.90
20081;DHT22;10200;49.232;9.222;2023-02-10T07:12:29;-3.10;99.90
20081;DHT22;10200;49.232;9.222;2023-02-10T07:14:54;-3.10;99.90
20081;DHT22;10200;49.232;9.222;2023-02-10T07:17:20;-3.00;99.90
20081;DHT22;10200;49.232;9.222;2023-02-10T07:19:46;-3.00;99.90
20081;DHT22;10200;49.232;9.222;2023-02-10T07:22:12;-2.90;99.90
20081;DHT22;10200;49.232;9.222;2023-02-10T07:24:38;-2.90;99.90
20081;DHT22;10200;49.232;9.222;2023-02-10T07:27:04;-2.90;99.90
20081;DHT22;10200;49.232;9.222;2023-02-10T07:29:29;-2.80;99.90
20081;DHT22;10200;49.232;9.222;2023-02-10T07:31:55;-2.70;99.90
20081;DHT22;10200;49.232;9.222;2023-02-10T07:34:23;-2.60;99.90
20081;DHT22;10200;49.232;9.222;2023-02-10T07:36:49;-2.50;99.90
20081;DHT22;10200;49.232;9.222;2023-02-10T07:39:24;-2.40;99.90
20081;DHT22;10200;49.232;9.222;2023-02-10T07:41:50;-2.40;99.90
20081;DHT22;10200;49.232;9.222;2023-02-10T07:44:16;-2.30;99.90
20081;DHT22;10200;49.232;9.222;2023-02-10T07:46:42;-2.30;99.90
20081;DHT22;10200;49.232;9.222;2023-02-10T07:49:08;-2.20;99.90
20081;DHT22;10200;49.232;9.222;2023-02-10T07:51:34;-2.10;99.90
20081;DHT22;10200;49.232;9.222;2023-02-10T07:53:59;-2.10;99.90
20081;DHT22;10200;49.232;9.222;2023-02-10T07:56:25;-2.00;99.90
20081;DHT22;10200;49.232;9.222;2023-02-10T07:58:50;-2.00;99.90
20081;DHT22;10200;49.232;9.222;2023-02-10T08:01:16;-1.80;99.90
20081;DHT22;10200;49.232;9.222;2023-02-10T08:03:42;-1.80;99.90
20081;DHT22;10200;49.232;9.222;2023-02-10T08:06:07;-1.70;99.90
20081;DHT22;10200;49.232;9.222;2023-02-10T08:08:33;-1.60;99.90
20081;DHT22;10200;49.232;9.222;2023-02-10T08:10:59;-1.50;99.90
20081;DHT22;10200;49.232;9.222;2023-02-10T08:13:24;-1.40;99.90
20081;DHT22;10200;49.232;9.222;2023-02-10T08:15:50;-1.00;99.90
20081;DHT22;10200;49.232;9.222;2023-02-10T08:18:16;-0.40;99.90
20081;DHT22;10200;49.232;9.222;2023-02-10T08:20:42;0.20;99.90
20081;DHT22;10200;49.232;9.222;2023-02-10T08:23:13;0.80;99.90
20081;DHT22;10200;49.232;9.222;2023-02-10T08:25:39;1.50;99.90
20081;DHT22;10200;49.232;9.222;2023-02-10T08:28:05;2.10;99.90
20081;DHT22;10200;49.232;9.222;2023-02-10T08:30:30;2.60;99.90
20081;DHT22;10200;49.232;9.222;2023-02-10T08:32:57;3.20;99.90
20081;DHT22;10200;49.232;9.222;2023-02-10T08:35:23;3.60;97.30
20081;DHT22;10200;49.232;9.222;2023-02-10T08:37:48;3.90;93.90
20081;DHT22;10200;49.232;9.222;2023-02-10T08:40:14;4.20;93.70
20081;DHT22;10200;49.232;9.222;2023-02-10T08:42:39;4.60;92.00
20081;DHT22;10200;49.232;9.222;2023-02-10T08:45:05;4.70;89.60
20081;DHT22;10200;49.232;9.222;2023-02-10T08:47:32;4.80;87.50
20081;DHT22;10200;49.232;9.222;2023-02-10T08:49:57;5.00;85.20
20081;DHT22;10200;49.232;9.222;2023-02-10T08:52:23;4.90;81.80
20081;DHT22;10200;49.232;9.222;2023-02-10T08:54:48;4.80;79.90
20081;DHT22;10200;49.232;9.222;2023-02-10T08:57:14;4.90;82.10
20081;DHT22;10200;49.232;9.222;2023-02-10T08:59:40;5.00;81.30
20081;DHT22;10200;49.232;9.222;2023-02-10T09:02:05;5.10;79.70
20081;DHT22;10200;49.232;9.222;2023-02-10T09:04:31;5.10;79.30
20081;DHT22;10200;49.232;9.222;2023-02-10T09:06:57;5.10;78.90
20081;DHT22;10200;49.232;9.222;2023-02-10T09:09:23;5.00;76.90
20081;DHT22;10200;49.232;9.222;2023-02-10T09:11:50;4.90;78.20
20081;DHT22;10200;49.232;9.222;2023-02-10T09:14:16;4.90;78.60
20081;DHT22;10200;49.232;9.222;2023-02-10T09:16:41;4.90;78.30
20081;DHT22;10200;49.232;9.222;2023-02-10T09:19:07;4.80;78.70
20081;DHT22;10200;49.232;9.222;2023-02-10T09:21:33;4.80;78.30
20081;DHT22;10200;49.232;9.222;2023-02-10T09:23:58;4.60;77.80
20081;DHT22;10200;49.232;9.222;2023-02-10T09:26:24;4.50;78.00
20081;DHT22;10200;49.232;9.222;2023-02-10T09:28:50;4.40;79.10
20081;DHT22;10200;49.232;9.222;2023-02-10T09:31:16;4.30;80.00
20081;DHT22;10200;49.232;9.222;2023-02-10T09:33:42;4.30;80.50
20081;DHT22;10200;49.232;9.222;2023-02-10T09:36:13;4.20;79.80
20081;DHT22;10200;49.232;9.222;2023-02-10T09:38:39;3.90;79.70
20081;DHT22;10200;49.232;9.222;2023-02-10T09:43:40;3.80;81.40
20081;DHT22;10200;49.232;9.222;2023-02-10T09:46:36;3.50;81.20
20081;DHT22;10200;49.232;9.222;2023-02-10T09:49:18;3.40;83.20
20081;DHT22;10200;49.232;9.222;2023-02-10T09:54:31;3.20;85.00
20081;DHT22;10200;49.232;9.222;2023-02-10T09:57:03;3.10;85.10
20081;DHT22;10200;49.232;9.222;2023-02-10T09:59:33;3.00;86.10
20081;DHT22;10200;49.232;9.222;2023-02-10T10:02:10;2.90;86.00
20081;DHT22;10200;49.232;9.222;2023-02-10T10:04:37;2.90;88.40
20081;DHT22;10200;49.232;9.222;2023-02-10T10:07:23;2.90;88.90
20081;DHT22;10200;49.232;9.222;2023-02-10T10:10:01;3.00;89.90
20081;DHT22;10200;49.232;9.222;2023-02-10T10:12:28;3.10;90.20
20081;DHT22;10200;49.232;9.222;2023-02-10T10:14:54;3.20;90.20
20081;DHT22;10200;49.232;9.222;2023-02-10T10:20:28;3.40;90.90
20081;DHT22;10200;49.232;9.222;2023-02-10T10:29:23;3.50;90.70
20081;DHT22;10200;49.232;9.222;2023-02-10T10:32:17;3.40;90.40
20081;DHT22;10200;49.232;9.222;2023-02-10T10:34:48;3.40;90.90
20081;DHT22;10200;49.232;9.222;2023-02-10T10:37:22;3.30;90.90
20081;DHT22;10200;49.232;9.222;2023-02-10T10:39:51;3.20;90.60
20081;DHT22;10200;49.232;9.222;2023-02-10T10:42:41;3.10;90.90
20081;DHT22;10200;49.232;9.222;2023-02-10T10:45:20;3.20;91.40
20081;DHT22;10200;49.232;9.222;2023-02-10T10:50:38;3.30;92.30
20081;DHT22;10200;49.232;9.222;2023-02-10T10:53:14;3.40;92.20
20081;DHT22;10200;49.232;9.222;2023-02-10T10:55:43;3.40;92.20
20081;DHT22;10200;49.232;9.222;2023-02-10T10:58:31;3.50;92.20
20081;DHT22;10200;49.232;9.222;2023-02-10T11:01:00;3.50;92.00
20081;DHT22;10200;49.232;9.222;2023-02-10T11:03:27;3.50;92.20
20081;DHT22;10200;49.232;9.222;2023-02-10T11:08:30;3.60;92.60
20081;DHT22;10200;49.232;9.222;2023-02-10T11:11:00;3.60;92.60
20081;DHT22;10200;49.232;9.222;2023-02-10T11:13:29;3.70;92.40
20081;DHT22;10200;49.232;9.222;2023-02-10T11:16:05;3.70;92.10
20081;DHT22;10200;49.232;9.222;2023-02-10T11:18:31;3.80;92.60
20081;DHT22;10200;49.232;9.222;2023-02-10T11:20:59;3.90;93.00
20081;DHT22;10200;49.232;9.222;2023-02-10T11:23:26;3.90;92.30
20081;DHT22;10200;49.232;9.222;2023-02-10T11:26:04;3.90;92.10
20081;DHT22;10200;49.232;9.222;2023-02-10T11:28:33;4.00;92.20
20081;DHT22;10200;49.232;9.222;2023-02-10T11:31:04;4.00;92.20
20081;DHT22;10200;49.232;9.222;2023-02-10T11:33:32;4.10;92.50
20081;DHT22;10200;49.232;9.222;2023-02-10T11:36:08;4.20;91.80
20081;DHT22;10200;49.232;9.222;2023-02-10T11:38:35;4.20;91.40
20081;DHT22;10200;49.232;9.222;2023-02-10T11:41:04;4.20;91.40
20081;DHT22;10200;49.232;9.222;2023-02-10T11:43:41;4.20;91.20
20081;DHT22;10200;49.232;9.222;2023-02-10T11:46:16;4.20;91.60
20081;DHT22;10200;49.232;9.222;2023-02-10T11:48:55;4.30;91.70
20081;DHT22;10200;49.232;9.222;2023-02-10T11:51:21;4.30;91.40
20081;DHT22;10200;49.232;9.222;2023-02-10T11:53:48;4.40;91.20
20081;DHT22;10200;49.232;9.222;2023-02-10T12:02:22;4.50;91.30
20081;DHT22;10200;49.232;9.222;2023-02-10T12:11:02;4.60;91.20
20081;DHT22;10200;49.232;9.222;2023-02-10T12:13:53;4.70;90.90
20081;DHT22;10200;49.232;9.222;2023-02-10T12:16:42;4.70;90.80
20081;DHT22;10200;49.232;9.222;2023-02-10T12:26:58;4.80;90.40
20081;DHT22;10200;49.232;9.222;2023-02-10T12:35:11;4.90;89.50
20081;DHT22;10200;49.232;9.222;2023-02-10T12:46:36;5.10;87.90
20081;DHT22;10200;49.232;9.222;2023-02-10T12:49:25;5.10;87.60
20081;DHT22;10200;49.232;9.222;2023-02-10T12:52:04;5.10;86.60
20081;DHT22;10200;49.232;9.222;2023-02-10T12:54:41;5.10;86.40
20081;DHT22;10200;49.232;9.222;2023-02-10T12:57:13;5.20;86.30
20081;DHT22;10200;49.232;9.222;2023-02-10T12:59:49;5.20;86.30
20081;DHT22;10200;49.232;9.222;2023-02-10T13:02:42;5.30;85.70
20081;DHT22;10200;49.232;9.222;2023-02-10T13:05:18;5.40;86.00
20081;DHT22;10200;49.232;9.222;2023-02-10T13:07:55;5.40;85.90
20081;DHT22;10200;49.232;9.222;2023-02-10T13:10:45;5.40;85.20
20081;DHT22;10200;49.232;9.222;2023-02-10T13:13:12;5.50;85.00
20081;DHT22;10200;49.232;9.222;2023-02-10T13:18:21;5.50;83.80
20081;DHT22;10200;49.232;9.222;2023-02-10T13:20:58;5.50;83.40
20081;DHT22;10200;49.232;9.222;2023-02-10T13:34:56;5.60;83.50
20081;DHT22;10200;49.232;9.222;2023-02-10T13:37:34;5.70;83.40
20081;DHT22;10200;49.232;9.222;2023-02-10T13:40:10;5.70;83.00
20081;DHT22;10200;49.232;9.222;2023-02-10T13:42:44;5.70;82.70
20081;DHT22;10200;49.232;9.222;2023-02-10T13:55:36;5.80;83.10
20081;DHT22;10200;49.232;9.222;2023-02-10T14:00:30;5.80;81.70
20081;DHT22;10200;49.232;9.222;2023-02-10T14:05:38;5.90;81.90
20081;DHT22;10200;49.232;9.222;2023-02-10T14:13:31;6.00;81.70
20081;DHT22;10200;49.232;9.222;2023-02-10T14:15:58;6.00;81.70
20081;DHT22;10200;49.232;9.222;2023-02-10T14:18:30;6.10;82.00
20081;DHT22;10200;49.232;9.222;2023-02-10T14:21:00;6.10;81.80
20081;DHT22;10200;49.232;9.222;2023-02-10T14:23:27;6.20;81.70
20081;DHT22;10200;49.232;9.222;2023-02-10T14:26:31;6.20;81.80
20081;DHT22;10200;49.232;9.222;2023-02-10T14:29:01;6.20;81.60
20081;DHT22;10200;49.232;9.222;2023-02-10T14:31:30;6.20;81.20
20081;DHT22;10200;49.232;9.222;2023-02-10T14:34:01;6.20;81.10
20081;DHT22;10200;49.232;9.222;2023-02-10T14:36:28;6.20;81.10
20081;DHT22;10200;49.232;9.222;2023-02-10T14:38:56;6.20;80.90
20081;DHT22;10200;49.232;9.222;2023-02-10T14:41:23;6.20;81.40
20081;DHT22;10200;49.232;9.222;2023-02-10T14:43:49;6.20;81.20
20081;DHT22;10200;49.232;9.222;2023-02-10T14:46:28;6.20;80.90
20081;DHT22;10200;49.232;9.222;2023-02-10T14:49:10;6.10;80.80
20081;DHT22;10200;49.232;9.222;2023-02-10T14:51:43;6.10;80.60
20081;DHT22;10200;49.232;9.222;2023-02-10T14:54:20;6.10;80.80
20081;DHT22;10200;49.232;9.222;2023-02-10T14:59:23;6.10;81.90
20081;DHT22;10200;49.232;9.222;2023-02-10T15:01:49;6.10;81.00
20081;DHT22;10200;49.232;9.222;2023-02-10T15:04:16;6.10;81.00
20081;DHT22;10200;49.232;9.222;2023-02-10T15:06:45;6.10;81.00
20081;DHT22;10200;49.232;9.222;2023-02-10T15:09:16;6.10;81.00
20081;DHT22;10200;49.232;9.222;2023-02-10T15:11:55;6.20;80.90
20081;DHT22;10200;49.232;9.222;2023-02-10T15:15:38;6.10;80.90
20081;DHT22;10200;49.232;9.222;2023-02-10T15:17:40;6.20;81.10
20081;DHT22;10200;49.232;9.222;2023-02-10T15:22:41;6.20;80.60
20081;DHT22;10200;49.232;9.222;2023-02-10T15:27:51;6.20;80.40
20081;DHT22;10200;49.232;9.222;2023-02-10T15:30:22;6.10;80.30
20081;DHT22;10200;49.232;9.222;2023-02-10T15:32:59;6.00;80.50
20081;DHT22;10200;49.232;9.222;2023-02-10T15:35:25;6.00;80.40
20081;DHT22;10200;49.232;9.222;2023-02-10T15:37:53;6.00;80.50
20081;DHT22;10200;49.232;9.222;2023-02-10T15:40:24;5.90;80.40
20081;DHT22;10200;49.232;9.222;2023-02-10T15:43:03;5.90;80.80
20081;DHT22;10200;49.232;9.222;2023-02-10T15:45:29;5.90;80.90
20081;DHT22;10200;49.232;9.222;2023-02-10T15:48:07;5.90;81.10
20081;DHT22;10200;49.232;9.222;2023-02-10T15:50:35;5.80;81.10
20081;DHT22;10200;49.232;9.222;2023-02-10T15:53:01;5.80;81.40
20081;DHT22;10200;49.232;9.222;2023-02-10T15:55:30;5.70;81.50
20081;DHT22;10200;49.232;9.222;2023-02-10T15:57:57;5.70;81.70
20081;DHT22;10200;49.232;9.222;2023-02-10T16:00:26;5.70;81.90
20081;DHT22;10200;49.232;9.222;2023-02-10T16:02:52;5.70;82.30
20081;DHT22;10200;49.232;9.222;2023-02-10T16:05:18;5.70;82.50
20081;DHT22;10200;49.232;9.222;2023-02-10T16:07:44;5.70;83.00
20081;DHT22;10200;49.232;9.222;2023-02-10T16:10:18;5.60;83.00
20081;DHT22;10200;49.232;9.222;2023-02-10T16:12:44;5.60;83.00
20081;DHT22;10200;49.232;9.222;2023-02-10T16:15:14;5.50;83.20
20081;DHT22;10200;49.232;9.222;2023-02-10T16:17:42;5.50;83.40
20081;DHT22;10200;49.232;9.222;2023-02-10T16:20:24;5.50;83.30
20081;DHT22;10200;49.232;9.222;2023-02-10T16:22:50;5.40;83.40
20081;DHT22;10200;49.232;9.222;2023-02-10T16:25:20;5.30;83.50
20081;DHT22;10200;49.232;9.222;2023-02-10T16:27:46;5.30;83.80
20081;DHT22;10200;49.232;9.222;2023-02-10T16:30:23;5.20;83.70
20081;DHT22;10200;49.232;9.222;2023-02-10T16:32:49;5.20;83.80
20081;DHT22;10200;49.232;9.222;2023-02-10T16:35:16;5.10;83.90
20081;DHT22;10200;49.232;9.222;2023-02-10T16:37:42;5.00;84.20
20081;DHT22;10200;49.232;9.222;2023-02-10T16:40:16;5.00;84.50
20081;DHT22;10200;49.232;9.222;2023-02-10T16:42:43;4.90;84.70
20081;DHT22;10200;49.232;9.222;2023-02-10T16:45:09;4.80;84.70
20081;DHT22;10200;49.232;9.222;2023-02-10T16:47:34;4.80;85.10
20081;DHT22;10200;49.232;9.222;2023-02-10T16:50:00;4.80;85.20
20081;DHT22;10200;49.232;9.222;2023-02-10T16:52:26;4.70;85.60
20081;DHT22;10200;49.232;9.222;2023-02-10T16:54:51;4.70;85.60
20081;DHT22;10200;49.232;9.222;2023-02-10T16:57:18;4.60;86.00
20081;DHT22;10200;49.232;9.222;2023-02-10T16:59:43;4.60;86.10
20081;DHT22;10200;49.232;9.222;2023-02-10T17:02:09;4.50;86.40
20081;DHT22;10200;49.232;9.222;2023-02-10T17:04:35;4.50;86.70
20081;DHT22;10200;49.232;9.222;2023-02-10T17:07:01;4.40;87.00
20081;DHT22;10200;49.232;9.222;2023-02-10T17:09:27;4.40;87.00
20081;DHT22;10200;49.232;9.222;2023-02-10T17:11:53;4.30;87.20
20081;DHT22;10200;49.232;9.222;2023-02-10T17:14:19;4.30;87.40
20081;DHT22;10200;49.232;9.222;2023-02-10T17:16:47;4.20;87.90
20081;DHT22;10200;49.232;9.222;2023-02-10T17:19:15;4.10;88.10
20081;DHT22;10200;49.232;9.222;2023-02-10T17:21:41;4.00;88.40
20081;DHT22;10200;49.232;9.222;2023-02-10T17:24:07;4.00;88.70
20081;DHT22;10200;49.232;9.222;2023-02-10T17:26:33;3.90;89.30
20081;DHT22;10200;49.232;9.222;2023-02-10T17:28:59;3.90;89.30
20081;DHT22;10200;49.232;9.222;2023-02-10T17:31:24;3.80;89.50
20081;DHT22;10200;49.232;9.222;2023-02-10T17:33:51;3.70;89.90
20081;DHT22;10200;49.232;9.222;2023-02-10T17:36:19;3.60;90.20
20081;DHT22;10200;49.232;9.222;2023-02-10T17:38:45;3.50;90.40
20081;DHT22;10200;49.232;9.222;2023-02-10T17:41:22;3.40;90.70
20081;DHT22;10200;49.232;9.222;2023-02-10T17:43:49;3.40;90.70
20081;DHT22;10200;49.232;9.222;2023-02-10T17:46:16;3.30;91.10
20081;DHT22;10200;49.232;9.222;2023-02-10T17:48:43;3.20;91.30
20081;DHT22;10200;49.232;9.222;2023-02-10T17:51:14;3.20;91.70